sensor_id;sensor_type;location;lat;lon;timestamp;pressure;altitude;pressure_sealevel;temperature;humidity
45129;BME280;35512;56.312;101.728;2023-04-07T00:00:49;94990.72;;;2.78;33.52
45129;BME280;35512;56.312;101.728;2023-04-07T00:03:18;94979.19;;;2.90;33.30
45129;BME280;35512;56.312;101.728;2023-04-07T00:05:48;94991.78;;;3.09;33.08
45129;BME280;35512;56.312;101.728;2023-04-07T00:08:17;94987.09;;;3.21;32.97
45129;BME280;35512;56.312;101.728;2023-04-07T00:10:46;94994.00;;;3.42;32.96
45129;BME280;35512;56.312;101.728;2023-04-07T00:13:15;94980.66;;;3.62;32.64
45129;BME280;35512;56.312;101.728;2023-04-07T00:15:44;94993.69;;;3.86;32.47
45129;BME280;35512;56.312;101.728;2023-04-07T00:18:12;94984.97;;;4.09;32.38
45129;BME280;35512;56.312;101.728;2023-04-07T00:20:41;94968.41;;;4.23;31.59
45129;BME280;35512;56.312;101.728;2023-04-07T00:23:10;94974.19;;;4.52;31.53
45129;BME280;35512;56.312;101.728;2023-04-07T00:25:39;94973.41;;;4.74;31.52
45129;BME280;35512;56.312;101.728;2023-04-07T00:28:08;94969.53;;;4.99;30.94
45129;BME280;35512;56.312;101.728;2023-04-07T00:30:37;94963.03;;;5.27;31.24
45129;BME280;35512;56.312;101.728;2023-04-07T00:33:06;94959.91;;;5.55;30.74
45129;BME280;35512;56.312;101.728;2023-04-07T00:35:36;94966.34;;;5.84;29.97
45129;BME280;35512;56.312;101.728;2023-04-07T00:38:06;94949.00;;;6.08;30.13
45129;BME280;35512;56.312;101.728;2023-04-07T00:40:35;94945.38;;;6.31;29.26
45129;BME280;35512;56.312;101.728;2023-04-07T00:43:05;94941.34;;;6.52;28.58
45129;BME280;35512;56.312;101.728;2023-04-07T00:45:35;94944.53;;;6.68;28.07
45129;BME280;35512;56.312;101.728;2023-04-07T00:48:05;94943.84;;;6.82;28.64
45129;BME280;35512;56.312;101.728;2023-04-07T00:50:34;94939.69;;;6.92;28.01
45129;BME280;35512;56.312;101.728;2023-04-07T00:53:04;94946.66;;;7.04;27.77
45129;BME280;35512;56.312;101.728;2023-04-07T00:55:33;94931.78;;;7.24;27.66
45129;BME280;35512;56.312;101.728;2023-04-07T00:58:03;94937.22;;;7.35;27.46
45129;BME280;35512;56.312;101.728;2023-04-07T01:00:41;94930.34;;;7.45;27.08
45129;BME280;35512;56.312;101.728;2023-04-07T01:03:24;94926.94;;;7.63;26.79
45129;BME280;35512;56.312;101.728;2023-04-07T01:05:59;94932.00;;;8.00;26.47
45129;BME280;35512;56.312;101.728;2023-04-07T01:11:20;94906.56;;;9.27;25.94
45129;BME280;35512;56.312;101.728;2023-04-07T01:13:53;94902.50;;;9.79;25.49
45129;BME280;35512;56.312;101.728;2023-04-07T01:16:36;94905.69;;;10.19;25.26
45129;BME280;35512;56.312;101.728;2023-04-07T01:21:59;94901.56;;;10.98;24.44
45129;BME280;35512;56.312;101.728;2023-04-07T01:27:32;94905.06;;;11.64;23.98
45129;BME280;35512;56.312;101.728;2023-04-07T01:30:04;94894.53;;;12.00;23.55
45129;BME280;35512;56.312;101.728;2023-04-07T01:32:38;94900.38;;;12.50;24.03
45129;BME280;35512;56.312;101.728;2023-04-07T01:35:12;94900.53;;;12.87;23.41
45129;BME280;35512;56.312;101.728;2023-04-07T01:37:43;94877.56;;;13.15;23.00
45129;BME280;35512;56.312;101.728;2023-04-07T01:40:16;94877.03;;;13.44;22.58
45129;BME280;35512;56.312;101.728;2023-04-07T01:42:46;94886.72;;;13.81;22.65
45129;BME280;35512;56.312;101.728;2023-04-07T01:45:17;94877.88;;;14.14;21.91
45129;BME280;35512;56.312;101.728;2023-04-07T01:47:48;94877.44;;;14.15;22.14
45129;BME280;35512;56.312;101.728;2023-04-07T01:50:18;94873.03;;;14.38;22.06
45129;BME280;35512;56.312;101.728;2023-04-07T01:52:48;94870.22;;;14.58;21.67
45129;BME280;35512;56.312;101.728;2023-04-07T01:55:17;94869.47;;;14.74;22.03
45129;BME280;35512;56.312;101.728;2023-04-07T01:58:05;94873.50;;;14.99;21.71
45129;BME280;35512;56.312;101.728;2023-04-07T02:00:36;94873.28;;;15.06;21.40
45129;BME280;35512;56.312;101.728;2023-04-07T02:03:20;94874.31;;;14.66;21.14
45129;BME280;35512;56.312;101.728;2023-04-07T02:05:54;94874.50;;;14.26;21.23
45129;BME280;35512;56.312;101.728;2023-04-07T02:08:28;94872.78;;;14.65;21.05
45129;BME280;35512;56.312;101.728;2023-04-07T02:11:00;94872.31;;;15.00;20.71
45129;BME280;35512;56.312;101.728;2023-04-07T02:13:37;94872.66;;;15.44;20.76
45129;BME280;35512;56.312;101.728;2023-04-07T02:16:30;94875.91;;;16.07;20.53
45129;BME280;35512;56.312;101.728;2023-04-07T02:19:00;94870.50;;;16.68;20.56
45129;BME280;35512;56.312;101.728;2023-04-07T02:21:32;94860.81;;;17.02;19.78
45129;BME280;35512;56.312;101.728;2023-04-07T02:24:05;94853.31;;;16.93;19.45
45129;BME280;35512;56.312;101.728;2023-04-07T02:26:35;94856.44;;;17.04;19.75
45129;BME280;35512;56.312;101.728;2023-04-07T02:29:04;94859.63;;;17.47;19.58
45129;BME280;35512;56.312;101.728;2023-04-07T02:31:33;94861.88;;;18.02;19.27
45129;BME280;35512;56.312;101.728;2023-04-07T02:34:03;94853.38;;;18.50;19.19
45129;BME280;35512;56.312;101.728;2023-04-07T02:36:32;94863.44;;;18.81;19.41
45129;BME280;35512;56.312;101.728;2023-04-07T02:39:01;94853.28;;;18.82;18.78
45129;BME280;35512;56.312;101.728;2023-04-07T02:41:30;94860.38;;;18.61;18.61
45129;BME280;35512;56.312;101.728;2023-04-07T02:43:59;94857.06;;;18.16;18.00
45129;BME280;35512;56.312;101.728;2023-04-07T02:46:28;94854.63;;;17.77;18.95
45129;BME280;35512;56.312;101.728;2023-04-07T02:48:57;94854.75;;;17.73;18.71
45129;BME280;35512;56.312;101.728;2023-04-07T02:51:26;94848.56;;;17.51;18.56
45129;BME280;35512;56.312;101.728;2023-04-07T02:53:56;94848.19;;;17.39;18.47
45129;BME280;35512;56.312;101.728;2023-04-07T02:56:25;94846.06;;;17.34;18.81
45129;BME280;35512;56.312;101.728;2023-04-07T02:58:54;94849.03;;;17.81;19.16
45129;BME280;35512;56.312;101.728;2023-04-07T03:01:23;94847.00;;;18.53;18.64
45129;BME280;35512;56.312;101.728;2023-04-07T03:03:57;94838.66;;;18.66;18.19
45129;BME280;35512;56.312;101.728;2023-04-07T03:06:26;94833.97;;;18.67;18.48
45129;BME280;35512;56.312;101.728;2023-04-07T03:09:13;94842.94;;;18.77;18.39
45129;BME280;35512;56.312;101.728;2023-04-07T03:11:42;94835.94;;;18.66;18.43
45129;BME280;35512;56.312;101.728;2023-04-07T03:14:12;94834.88;;;18.54;18.41
45129;BME280;35512;56.312;101.728;2023-04-07T03:16:45;94826.50;;;18.58;18.15
45129;BME280;35512;56.312;101.728;2023-04-07T03:19:15;94830.78;;;18.68;18.27
45129;BME280;35512;56.312;101.728;2023-04-07T03:21:49;94832.13;;;18.73;18.07
45129;BME280;35512;56.312;101.728;2023-04-07T03:24:18;94818.34;;;19.23;18.25
45129;BME280;35512;56.312;101.728;2023-04-07T03:26:47;94821.75;;;20.13;17.72
45129;BME280;35512;56.312;101.728;2023-04-07T03:29:25;94808.28;;;20.48;17.59
45129;BME280;35512;56.312;101.728;2023-04-07T03:31:56;94803.00;;;21.08;17.52
45129;BME280;35512;56.312;101.728;2023-04-07T03:34:25;94798.00;;;21.66;17.41
45129;BME280;35512;56.312;101.728;2023-04-07T03:36:58;94811.09;;;22.07;16.93
45129;BME280;35512;56.312;101.728;2023-04-07T03:39:29;94807.91;;;21.93;17.10
45129;BME280;35512;56.312;101.728;2023-04-07T03:42:01;94792.19;;;22.29;17.23
45129;BME280;35512;56.312;101.728;2023-04-07T03:44:33;94794.91;;;22.86;16.89
45129;BME280;35512;56.312;101.728;2023-04-07T03:47:01;94786.50;;;22.95;16.70
45129;BME280;35512;56.312;101.728;2023-04-07T03:49:32;94787.56;;;22.77;16.67
45129;BME280;35512;56.312;101.728;2023-04-07T03:52:03;94806.56;;;23.01;16.54
45129;BME280;35512;56.312;101.728;2023-04-07T03:54:33;94788.84;;;23.28;16.23
45129;BME280;35512;56.312;101.728;2023-04-07T03:57:03;94769.00;;;22.98;16.22
45129;BME280;35512;56.312;101.728;2023-04-07T03:59:36;94790.84;;;22.60;16.18
45129;BME280;35512;56.312;101.728;2023-04-07T04:02:06;94777.38;;;22.42;16.35
45129;BME280;35512;56.312;101.728;2023-04-07T04:04:37;94778.25;;;22.95;16.23
45129;BME280;35512;56.312;101.728;2023-04-07T04:07:07;94768.38;;;23.35;15.89
45129;BME280;35512;56.312;101.728;2023-04-07T04:09:46;94767.53;;;23.03;15.53
45129;BME280;35512;56.312;101.728;2023-04-07T04:12:15;94768.31;;;23.03;15.93
45129;BME280;35512;56.312;101.728;2023-04-07T04:15:02;94769.13;;;23.09;15.64
45129;BME280;35512;56.312;101.728;2023-04-07T04:17:31;94771.00;;;23.18;15.61
45129;BME280;35512;56.312;101.728;2023-04-07T04:20:03;94761.56;;;23.57;15.71
45129;BME280;35512;56.312;101.728;2023-04-07T04:22:43;94772.53;;;24.21;15.41
45129;BME280;35512;56.312;101.728;2023-04-07T04:25:12;94752.44;;;24.14;15.26
45129;BME280;35512;56.312;101.728;2023-04-07T04:27:46;94766.16;;;24.03;15.08
45129;BME280;35512;56.312;101.728;2023-04-07T04:30:23;94754.75;;;24.22;15.04
45129;BME280;35512;56.312;101.728;2023-04-07T04:32:58;94765.53;;;24.80;14.98
45129;BME280;35512;56.312;101.728;2023-04-07T04:35:35;94758.03;;;24.80;14.56
45129;BME280;35512;56.312;101.728;2023-04-07T04:38:10;94764.66;;;25.23;14.46
45129;BME280;35512;56.312;101.728;2023-04-07T04:40:44;94759.94;;;25.35;14.40
45129;BME280;35512;56.312;101.728;2023-04-07T04:43:16;94758.66;;;25.41;14.39
45129;BME280;35512;56.312;101.728;2023-04-07T04:45:46;94760.59;;;25.07;14.05
45129;BME280;35512;56.312;101.728;2023-04-07T04:48:17;94750.84;;;25.17;14.18
45129;BME280;35512;56.312;101.728;2023-04-07T04:50:47;94759.63;;;25.16;13.96
45129;BME280;35512;56.312;101.728;2023-04-07T04:53:16;94741.53;;;25.09;13.92
45129;BME280;35512;56.312;101.728;2023-04-07T04:55:49;94759.78;;;24.89;13.89
45129;BME280;35512;56.312;101.728;2023-04-07T04:58:39;94743.53;;;24.31;14.03
45129;BME280;35512;56.312;101.728;2023-04-07T05:01:12;94732.03;;;24.50;14.36
45129;BME280;35512;56.312;101.728;2023-04-07T05:03:51;94734.13;;;24.66;13.90
45129;BME280;35512;56.312;101.728;2023-04-07T05:06:25;94731.19;;;24.87;13.61
45129;BME280;35512;56.312;101.728;2023-04-07T05:08:59;94739.72;;;24.77;13.52
45129;BME280;35512;56.312;101.728;2023-04-07T05:11:37;94728.53;;;24.43;13.68
45129;BME280;35512;56.312;101.728;2023-04-07T05:14:06;94727.31;;;24.50;13.88
45129;BME280;35512;56.312;101.728;2023-04-07T05:16:37;94735.09;;;24.57;13.62
45129;BME280;35512;56.312;101.728;2023-04-07T05:19:06;94716.84;;;24.71;13.56
45129;BME280;35512;56.312;101.728;2023-04-07T05:21:35;94731.00;;;25.19;13.92
45129;BME280;35512;56.312;101.728;2023-04-07T05:24:06;94719.97;;;25.64;13.35
45129;BME280;35512;56.312;101.728;2023-04-07T05:26:37;94718.44;;;25.80;13.68
45129;BME280;35512;56.312;101.728;2023-04-07T05:29:06;94716.22;;;25.73;13.25
45129;BME280;35512;56.312;101.728;2023-04-07T05:31:35;94703.59;;;25.89;13.24
45129;BME280;35512;56.312;101.728;2023-04-07T05:34:08;94713.69;;;25.35;13.12
45129;BME280;35512;56.312;101.728;2023-04-07T05:36:44;94703.84;;;25.06;13.09
45129;BME280;35512;56.312;101.728;2023-04-07T05:39:13;94706.13;;;25.07;13.51
45129;BME280;35512;56.312;101.728;2023-04-07T05:41:44;94719.72;;;25.68;13.15
45129;BME280;35512;56.312;101.728;2023-04-07T05:44:14;94690.81;;;25.63;12.99
45129;BME280;35512;56.312;101.728;2023-04-07T05:46:44;94690.59;;;25.44;13.00
45129;BME280;35512;56.312;101.728;2023-04-07T05:49:14;94697.31;;;25.94;13.01
45129;BME280;35512;56.312;101.728;2023-04-07T05:51:53;94679.31;;;26.40;13.11
45129;BME280;35512;56.312;101.728;2023-04-07T05:54:22;94684.25;;;26.64;12.98
45129;BME280;35512;56.312;101.728;2023-04-07T05:56:52;94688.09;;;26.44;13.02
45129;BME280;35512;56.312;101.728;2023-04-07T05:59:22;94681.03;;;26.49;13.07
45129;BME280;35512;56.312;101.728;2023-04-07T06:01:52;94680.38;;;26.85;12.49
45129;BME280;35512;56.312;101.728;2023-04-07T06:04:22;94689.38;;;26.38;12.31
45129;BME280;35512;56.312;101.728;2023-04-07T06:06:54;94688.03;;;25.80;12.64
45129;BME280;35512;56.312;101.728;2023-04-07T06:09:23;94665.47;;;25.42;12.75
45129;BME280;35512;56.312;101.728;2023-04-07T06:11:52;94682.06;;;25.36;12.64
45129;BME280;35512;56.312;101.728;2023-04-07T06:14:21;94684.31;;;25.38;12.45
45129;BME280;35512;56.312;101.728;2023-04-07T06:16:50;94676.75;;;24.93;12.29
45129;BME280;35512;56.312;101.728;2023-04-07T06:19:19;94682.03;;;25.02;12.57
45129;BME280;35512;56.312;101.728;2023-04-07T06:21:48;94669.47;;;25.07;12.36
45129;BME280;35512;56.312;101.728;2023-04-07T06:24:17;94666.44;;;24.82;12.39
45129;BME280;35512;56.312;101.728;2023-04-07T06:26:45;94680.34;;;24.44;12.47
45129;BME280;35512;56.312;101.728;2023-04-07T06:29:15;94658.88;;;24.66;12.85
45129;BME280;35512;56.312;101.728;2023-04-07T06:31:44;94674.75;;;25.10;12.63
45129;BME280;35512;56.312;101.728;2023-04-07T06:34:13;94657.91;;;25.08;12.38
45129;BME280;35512;56.312;101.728;2023-04-07T06:36:43;94652.63;;;24.93;12.32
45129;BME280;35512;56.312;101.728;2023-04-07T06:39:13;94676.25;;;25.00;12.54
45129;BME280;35512;56.312;101.728;2023-04-07T06:41:42;94673.50;;;25.17;12.58
45129;BME280;35512;56.312;101.728;2023-04-07T06:44:11;94655.69;;;25.41;12.47
45129;BME280;35512;56.312;101.728;2023-04-07T06:46:40;94675.00;;;25.46;12.38
45129;BME280;35512;56.312;101.728;2023-04-07T06:49:09;94633.50;;;25.75;12.63
45129;BME280;35512;56.312;101.728;2023-04-07T06:51:38;94668.63;;;25.97;12.67
45129;BME280;35512;56.312;101.728;2023-04-07T06:54:08;94669.31;;;26.31;12.16
45129;BME280;35512;56.312;101.728;2023-04-07T06:56:41;94674.22;;;25.80;12.06
45129;BME280;35512;56.312;101.728;2023-04-07T06:59:10;94659.69;;;25.62;12.14
45129;BME280;35512;56.312;101.728;2023-04-07T07:01:41;94652.59;;;25.84;12.57
45129;BME280;35512;56.312;101.728;2023-04-07T07:04:11;94652.28;;;26.10;12.41
45129;BME280;35512;56.312;101.728;2023-04-07T07:06:40;94661.81;;;26.21;12.27
45129;BME280;35512;56.312;101.728;2023-04-07T07:09:09;94644.63;;;25.46;12.76
45129;BME280;35512;56.312;101.728;2023-04-07T07:11:38;94649.91;;;25.05;12.18
45129;BME280;35512;56.312;101.728;2023-04-07T07:14:07;94653.13;;;24.75;12.67
45129;BME280;35512;56.312;101.728;2023-04-07T07:16:37;94659.44;;;24.98;12.47
45129;BME280;35512;56.312;101.728;2023-04-07T07:19:06;94652.13;;;25.29;12.75
45129;BME280;35512;56.312;101.728;2023-04-07T07:21:36;94634.06;;;24.77;12.35
45129;BME280;35512;56.312;101.728;2023-04-07T07:24:05;94638.66;;;24.20;12.78
45129;BME280;35512;56.312;101.728;2023-04-07T07:26:34;94642.09;;;24.97;13.06
45129;BME280;35512;56.312;101.728;2023-04-07T07:29:03;94630.44;;;25.95;12.95
45129;BME280;35512;56.312;101.728;2023-04-07T07:31:33;94621.13;;;25.93;12.60
45129;BME280;35512;56.312;101.728;2023-04-07T07:34:03;94617.72;;;26.34;12.55
45129;BME280;35512;56.312;101.728;2023-04-07T07:36:32;94622.94;;;26.43;12.61
45129;BME280;35512;56.312;101.728;2023-04-07T07:39:02;94613.38;;;26.44;12.58
45129;BME280;35512;56.312;101.728;2023-04-07T07:41:32;94608.44;;;26.26;11.97
45129;BME280;35512;56.312;101.728;2023-04-07T07:44:01;94633.97;;;25.96;12.37
45129;BME280;35512;56.312;101.728;2023-04-07T07:46:30;94608.97;;;25.37;12.41
45129;BME280;35512;56.312;101.728;2023-04-07T07:48:59;94604.19;;;24.87;13.19
45129;BME280;35512;56.312;101.728;2023-04-07T07:51:28;94590.88;;;25.25;12.95
45129;BME280;35512;56.312;101.728;2023-04-07T07:53:57;94600.94;;;25.11;13.00
45129;BME280;35512;56.312;101.728;2023-04-07T07:56:25;94607.69;;;24.70;12.75
45129;BME280;35512;56.312;101.728;2023-04-07T07:58:54;94603.53;;;24.09;13.54
45129;BME280;35512;56.312;101.728;2023-04-07T08:01:25;94589.44;;;23.09;13.65
45129;BME280;35512;56.312;101.728;2023-04-07T08:03:55;94584.44;;;21.25;14.22
45129;BME280;35512;56.312;101.728;2023-04-07T08:06:25;94587.69;;;21.09;15.17
45129;BME280;35512;56.312;101.728;2023-04-07T08:08:54;94584.31;;;21.70;14.85
45129;BME280;35512;56.312;101.728;2023-04-07T08:11:23;94567.91;;;22.23;14.79
45129;BME280;35512;56.312;101.728;2023-04-07T08:13:52;94584.47;;;22.81;14.65
45129;BME280;35512;56.312;101.728;2023-04-07T08:16:21;94573.53;;;22.60;14.58
45129;BME280;35512;56.312;101.728;2023-04-07T08:18:51;94570.63;;;22.17;14.68
45129;BME280;35512;56.312;101.728;2023-04-07T08:21:20;94564.41;;;22.22;14.70
45129;BME280;35512;56.312;101.728;2023-04-07T08:23:52;94554.28;;;22.08;14.55
45129;BME280;35512;56.312;101.728;2023-04-07T08:26:21;94553.38;;;20.09;15.18
45129;BME280;35512;56.312;101.728;2023-04-07T08:28:51;94559.72;;;19.03;16.05
45129;BME280;35512;56.312;101.728;2023-04-07T08:31:20;94550.03;;;18.41;16.63
45129;BME280;35512;56.312;101.728;2023-04-07T08:33:50;94540.22;;;17.60;17.46
45129;BME280;35512;56.312;101.728;2023-04-07T08:36:25;94548.41;;;16.92;17.84
45129;BME280;35512;56.312;101.728;2023-04-07T08:38:55;94539.53;;;16.37;18.40
45129;BME280;35512;56.312;101.728;2023-04-07T08:41:29;94539.56;;;15.93;18.40
45129;BME280;35512;56.312;101.728;2023-04-07T08:44:00;94535.66;;;15.59;19.40
45129;BME280;35512;56.312;101.728;2023-04-07T08:46:37;94539.63;;;14.97;20.04
45129;BME280;35512;56.312;101.728;2023-04-07T08:49:10;94548.00;;;14.77;20.34
45129;BME280;35512;56.312;101.728;2023-04-07T08:51:45;94528.09;;;14.67;20.51
45129;BME280;35512;56.312;101.728;2023-04-07T08:54:19;94545.88;;;14.43;20.34
45129;BME280;35512;56.312;101.728;2023-04-07T08:56:50;94534.59;;;14.44;20.57
45129;BME280;35512;56.312;101.728;2023-04-07T08:59:20;94525.91;;;14.62;20.79
45129;BME280;35512;56.312;101.728;2023-04-07T09:01:54;94523.75;;;14.70;20.89
45129;BME280;35512;56.312;101.728;2023-04-07T09:04:24;94533.66;;;14.64;20.98
45129;BME280;35512;56.312;101.728;2023-04-07T09:06:54;94531.09;;;14.44;21.02
45129;BME280;35512;56.312;101.728;2023-04-07T09:09:23;94514.81;;;14.31;21.28
45129;BME280;35512;56.312;101.728;2023-04-07T09:11:52;94500.25;;;14.12;21.78
45129;BME280;35512;56.312;101.728;2023-04-07T09:14:21;94526.72;;;14.20;21.65
45129;BME280;35512;56.312;101.728;2023-04-07T09:16:50;94530.22;;;14.21;21.53
45129;BME280;35512;56.312;101.728;2023-04-07T09:19:19;94510.34;;;14.11;21.82
45129;BME280;35512;56.312;101.728;2023-04-07T09:21:51;94494.47;;;13.97;21.68
45129;BME280;35512;56.312;101.728;2023-04-07T09:24:26;94502.22;;;13.82;21.78
45129;BME280;35512;56.312;101.728;2023-04-07T09:27:17;94504.91;;;13.69;22.09
45129;BME280;35512;56.312;101.728;2023-04-07T09:29:46;94500.81;;;13.77;22.36
45129;BME280;35512;56.312;101.728;2023-04-07T09:32:34;94502.16;;;13.98;21.95
45129;BME280;35512;56.312;101.728;2023-04-07T09:35:06;94502.50;;;14.00;22.34
45129;BME280;35512;56.312;101.728;2023-04-07T09:37:35;94500.97;;;13.99;22.34
45129;BME280;35512;56.312;101.728;2023-04-07T09:40:05;94486.31;;;13.84;22.37
45129;BME280;35512;56.312;101.728;2023-04-07T09:42:34;94496.78;;;13.69;22.21
45129;BME280;35512;56.312;101.728;2023-04-07T09:45:06;94496.84;;;13.52;22.32
45129;BME280;35512;56.312;101.728;2023-04-07T09:47:35;94497.78;;;13.46;22.88
45129;BME280;35512;56.312;101.728;2023-04-07T09:50:05;94487.78;;;13.43;22.95
45129;BME280;35512;56.312;101.728;2023-04-07T09:52:49;94476.84;;;13.46;22.81
45129;BME280;35512;56.312;101.728;2023-04-07T09:55:22;94489.22;;;13.47;23.28
45129;BME280;35512;56.312;101.728;2023-04-07T09:57:52;94485.50;;;13.41;22.95
45129;BME280;35512;56.312;101.728;2023-04-07T10:00:23;94482.19;;;13.33;23.10
45129;BME280;35512;56.312;101.728;2023-04-07T10:02:54;94488.13;;;13.28;23.38
45129;BME280;35512;56.312;101.728;2023-04-07T10:05:24;94476.63;;;13.24;23.13
45129;BME280;35512;56.312;101.728;2023-04-07T10:07:53;94471.72;;;13.19;23.62
45129;BME280;35512;56.312;101.728;2023-04-07T10:10:23;94464.03;;;13.17;23.94
45129;BME280;35512;56.312;101.728;2023-04-07T10:12:55;94467.31;;;13.09;23.27
45129;BME280;35512;56.312;101.728;2023-04-07T10:15:24;94449.41;;;12.98;23.39
45129;BME280;35512;56.312;101.728;2023-04-07T10:17:54;94474.28;;;12.93;23.67
45129;BME280;35512;56.312;101.728;2023-04-07T10:20:24;94462.53;;;13.00;24.00
45129;BME280;35512;56.312;101.728;2023-04-07T10:22:56;94463.47;;;12.93;23.86
45129;BME280;35512;56.312;101.728;2023-04-07T10:25:26;94461.69;;;12.87;24.00
45129;BME280;35512;56.312;101.728;2023-04-07T10:28:04;94471.19;;;12.78;24.06
45129;BME280;35512;56.312;101.728;2023-04-07T10:30:35;94460.84;;;12.73;23.72
45129;BME280;35512;56.312;101.728;2023-04-07T10:33:04;94448.91;;;12.54;24.00
45129;BME280;35512;56.312;101.728;2023-04-07T10:36:07;94448.84;;;12.41;24.29
45129;BME280;35512;56.312;101.728;2023-04-07T10:38:36;94444.94;;;12.26;24.01
45129;BME280;35512;56.312;101.728;2023-04-07T10:41:45;94442.13;;;12.13;24.16
45129;BME280;35512;56.312;101.728;2023-04-07T10:47:12;94440.13;;;11.97;24.38
45129;BME280;35512;56.312;101.728;2023-04-07T10:52:41;94435.72;;;11.66;24.72
45129;BME280;35512;56.312;101.728;2023-04-07T10:58:25;94437.47;;;11.37;24.87
45129;BME280;35512;56.312;101.728;2023-04-07T11:03:36;94432.28;;;11.26;25.23
45129;BME280;35512;56.312;101.728;2023-04-07T11:06:07;94430.47;;;11.19;25.19
45129;BME280;35512;56.312;101.728;2023-04-07T11:08:42;94428.97;;;11.18;25.01
45129;BME280;35512;56.312;101.728;2023-04-07T11:11:19;94425.13;;;11.15;25.14
45129;BME280;35512;56.312;101.728;2023-04-07T11:13:49;94431.28;;;11.16;25.14
45129;BME280;35512;56.312;101.728;2023-04-07T11:16:20;94433.34;;;11.08;25.26
45129;BME280;35512;56.312;101.728;2023-04-07T11:19:02;94426.91;;;11.02;25.45
45129;BME280;35512;56.312;101.728;2023-04-07T11:21:30;94424.75;;;10.93;25.48
45129;BME280;35512;56.312;101.728;2023-04-07T11:23:59;94419.94;;;10.81;25.36
45129;BME280;35512;56.312;101.728;2023-04-07T11:26:29;94416.63;;;10.73;25.40
45129;BME280;35512;56.312;101.728;2023-04-07T11:28:58;94416.81;;;10.62;25.60
45129;BME280;35512;56.312;101.728;2023-04-07T11:31:28;94433.94;;;10.52;25.66
45129;BME280;35512;56.312;101.728;2023-04-07T11:34:03;94431.50;;;10.34;25.76
45129;BME280;35512;56.312;101.728;2023-04-07T11:36:41;94444.53;;;10.12;25.86
45129;BME280;35512;56.312;101.728;2023-04-07T11:39:20;94450.97;;;9.91;25.98
45129;BME280;35512;56.312;101.728;2023-04-07T11:41:50;94438.16;;;9.71;26.25
45129;BME280;35512;56.312;101.728;2023-04-07T11:44:19;94459.94;;;9.53;26.64
45129;BME280;35512;56.312;101.728;2023-04-07T11:46:58;94449.81;;;9.30;26.83
45129;BME280;35512;56.312;101.728;2023-04-07T11:49:28;94454.59;;;9.11;26.95
45129;BME280;35512;56.312;101.728;2023-04-07T11:52:04;94461.75;;;8.87;27.45
45129;BME280;35512;56.312;101.728;2023-04-07T11:57:09;94477.13;;;8.34;28.23
45129;BME280;35512;56.312;101.728;2023-04-07T11:59:41;94484.97;;;8.14;28.57
45129;BME280;35512;56.312;101.728;2023-04-07T12:02:11;94482.81;;;7.87;29.13
45129;BME280;35512;56.312;101.728;2023-04-07T12:04:55;94485.59;;;7.66;29.04
45129;BME280;35512;56.312;101.728;2023-04-07T12:07:24;94487.56;;;7.47;30.03
45129;BME280;35512;56.312;101.728;2023-04-07T12:09:55;94491.09;;;7.26;30.04
45129;BME280;35512;56.312;101.728;2023-04-07T12:12:28;94490.38;;;7.04;30.46
45129;BME280;35512;56.312;101.728;2023-04-07T12:14:57;94498.06;;;6.87;30.48
45129;BME280;35512;56.312;101.728;2023-04-07T12:17:26;94492.72;;;6.66;31.07
45129;BME280;35512;56.312;101.728;2023-04-07T12:19:55;94495.41;;;6.48;32.00
45129;BME280;35512;56.312;101.728;2023-04-07T12:22:24;94503.41;;;6.30;31.89
45129;BME280;35512;56.312;101.728;2023-04-07T12:24:53;94502.25;;;6.20;32.16
45129;BME280;35512;56.312;101.728;2023-04-07T12:27:22;94520.63;;;6.07;32.76
45129;BME280;35512;56.312;101.728;2023-04-07T12:30:09;94521.66;;;5.91;33.15
45129;BME280;35512;56.312;101.728;2023-04-07T12:32:38;94525.44;;;5.72;33.32
45129;BME280;35512;56.312;101.728;2023-04-07T12:35:07;94526.91;;;5.55;33.79
45129;BME280;35512;56.312;101.728;2023-04-07T12:37:36;94546.75;;;5.47;34.08
45129;BME280;35512;56.312;101.728;2023-04-07T12:40:05;94555.06;;;5.28;35.25
45129;BME280;35512;56.312;101.728;2023-04-07T12:42:34;94555.31;;;5.08;35.62
45129;BME280;35512;56.312;101.728;2023-04-07T12:45:03;94577.38;;;4.94;35.88
45129;BME280;35512;56.312;101.728;2023-04-07T12:47:32;94566.13;;;4.74;36.54
45129;BME280;35512;56.312;101.728;2023-04-07T12:50:01;94576.31;;;4.57;36.54
45129;BME280;35512;56.312;101.728;2023-04-07T12:52:31;94566.69;;;4.49;37.01
45129;BME280;35512;56.312;101.728;2023-04-07T12:55:00;94552.78;;;4.33;36.78
45129;BME280;35512;56.312;101.728;2023-04-07T12:57:29;94579.84;;;4.28;37.66
45129;BME280;35512;56.312;101.728;2023-04-07T12:59:58;94593.06;;;4.13;37.62
45129;BME280;35512;56.312;101.728;2023-04-07T13:02:29;94579.59;;;4.02;37.40
45129;BME280;35512;56.312;101.728;2023-04-07T13:04:59;94582.22;;;3.99;37.72
45129;BME280;35512;56.312;101.728;2023-04-07T13:07:30;94600.84;;;3.92;37.71
45129;BME280;35512;56.312;101.728;2023-04-07T13:09:59;94598.09;;;3.88;37.82
45129;BME280;35512;56.312;101.728;2023-04-07T13:12:29;94608.03;;;3.87;38.00
45129;BME280;35512;56.312;101.728;2023-04-07T13:14:58;94598.91;;;3.92;37.88
45129;BME280;35512;56.312;101.728;2023-04-07T13:17:27;94616.13;;;3.95;37.86
45129;BME280;35512;56.312;101.728;2023-04-07T13:19:57;94595.88;;;3.94;38.10
45129;BME280;35512;56.312;101.728;2023-04-07T13:22:26;94598.88;;;3.88;38.13
45129;BME280;35512;56.312;101.728;2023-04-07T13:24:55;94592.72;;;3.84;38.08
45129;BME280;35512;56.312;101.728;2023-04-07T13:27:24;94591.59;;;3.85;38.25